Time;durP1;ratioP1;P1;durP2;ratioP2;P2;SDS_P1;SDS_P2;PMS_P1;PMS_P2;Temp;Humidity;BMP_temperature;BMP_pressure;BME280_temperature;BME280_humidity;BME280_pressure;Samples;Min_cycle;Max_cycle;Signal;HPM_P1;HPM_P2
2023/03/12 00:01:23;;;;;;;16.73;6.38;;;;;;;2.20;66.20;99702.03;4974634;28;20047;-82
2023/03/12 00:03:50;;;;;;;15.68;7.45;;;;;;;2.18;66.54;99700.31;4983379;28;20579;-82
2023/03/12 00:06:17;;;;;;;12.80;6.78;;;;;;;2.14;66.25;99704.06;4967635;28;20047;-82
2023/03/12 00:08:44;;;;;;;11.13;5.85;;;;;;;2.12;66.12;99699.84;4984259;28;20039;-82
2023/03/12 00:11:16;;;;;;;16.40;6.82;;;;;;;2.08;66.32;99690.44;4986377;28;20058;-82
2023/03/12 00:13:43;;;;;;;15.23;5.93;;;;;;;2.09;66.49;99689.53;4990886;28;20045;-82
2023/03/12 00:16:14;;;;;;;14.60;6.57;;;;;;;2.04;66.87;99696.81;4985817;28;20161;-82
2023/03/12 00:18:42;;;;;;;11.65;6.80;;;;;;;2.01;67.13;99697.81;4962172;28;20043;-82
2023/03/12 00:21:09;;;;;;;17.52;6.15;;;;;;;2.01;67.00;99695.22;4965436;28;20055;-82
2023/03/12 00:23:36;;;;;;;15.80;7.40;;;;;;;2.05;66.83;99693.25;4967310;28;20133;-82
2023/03/12 00:26:04;;;;;;;14.95;6.85;;;;;;;2.04;67.15;99704.66;4990175;28;20068;-82
2023/03/12 00:28:31;;;;;;;14.88;6.80;;;;;;;1.97;66.98;99705.94;4969301;28;20457;-82
2023/03/12 00:30:58;;;;;;;13.27;6.45;;;;;;;1.95;67.40;99698.16;4971488;28;20065;-82
2023/03/12 00:33:26;;;;;;;15.30;5.60;;;;;;;1.92;67.19;99696.53;4964703;28;20053;-82
2023/03/12 00:35:53;;;;;;;14.07;6.68;;;;;;;1.96;67.29;99692.00;4996494;28;20057;-82
2023/03/12 00:38:19;;;;;;;11.43;5.70;;;;;;;1.93;67.45;99687.78;4989989;28;20058;-82
2023/03/12 00:40:47;;;;;;;11.65;6.07;;;;;;;1.82;68.03;99687.50;4954903;28;20153;-82
2023/03/12 00:43:14;;;;;;;13.43;5.47;;;;;;;1.95;67.50;99679.81;4949484;28;20074;-82
2023/03/12 00:45:41;;;;;;;14.27;6.60;;;;;;;1.91;67.48;99679.16;4977385;28;20601;-82
2023/03/12 00:48:07;;;;;;;12.00;6.32;;;;;;;1.88;67.71;99684.56;4981476;28;20478;-83
2023/03/12 00:50:34;;;;;;;12.77;5.90;;;;;;;1.92;67.39;99683.44;4955204;28;20129;-82
2023/03/12 00:53:01;;;;;;;16.60;6.20;;;;;;;1.91;67.29;99680.94;4970120;28;20046;-82
2023/03/12 00:55:28;;;;;;;11.85;5.55;;;;;;;1.86;67.39;99688.19;4987356;28;20121;-82
2023/03/12 00:57:55;;;;;;;11.15;5.97;;;;;;;1.82;67.35;99682.25;4980327;28;20074;-82
2023/03/12 01:00:22;;;;;;;13.05;6.50;;;;;;;1.81;67.46;99683.22;4980915;28;20059;-82
2023/03/12 01:02:48;;;;;;;14.48;6.03;;;;;;;1.80;67.65;99685.91;4971772;28;20053;-82
2023/03/12 01:05:15;;;;;;;8.48;5.40;;;;;;;1.81;67.69;99685.81;4980522;28;20130;-82
2023/03/12 01:07:42;;;;;;;12.98;6.45;;;;;;;1.81;67.81;99685.81;4969451;28;20046;-82
2023/03/12 01:10:12;;;;;;;11.45;5.97;;;;;;;1.66;67.97;99684.03;4977406;28;20494;-81
2023/03/12 01:12:40;;;;;;;10.15;5.38;;;;;;;1.77;67.62;99681.66;4985210;28;20062;-82
2023/03/12 01:15:09;;;;;;;12.18;5.57;;;;;;;1.72;67.84;99676.69;4963087;28;20050;-82
2023/03/12 01:17:35;;;;;;;13.82;5.85;;;;;;;1.72;68.05;99681.91;4986254;28;20526;-81
2023/03/12 01:20:02;;;;;;;9.75;5.70;;;;;;;1.69;67.80;99684.72;4970248;28;20046;-82
2023/03/12 01:22:29;;;;;;;9.68;5.90;;;;;;;1.69;68.33;99689.94;4964089;28;20242;-82
2023/03/12 01:24:56;;;;;;;14.85;5.90;;;;;;;1.70;68.46;99680.31;4979835;28;20468;-82
2023/03/12 01:27:23;;;;;;;12.35;5.90;;;;;;;1.76;68.51;99677.38;4986326;28;20101;-82
2023/03/12 01:29:50;;;;;;;11.18;5.40;;;;;;;1.83;68.21;99683.97;4999138;28;20904;-81
2023/03/12 01:32:17;;;;;;;13.45;5.63;;;;;;;1.80;68.19;99685.91;4964724;28;20066;-82
2023/03/12 01:34:43;;;;;;;12.63;6.18;;;;;;;1.83;68.40;99690.97;4961976;28;20077;-82
2023/03/12 01:37:10;;;;;;;11.55;5.57;;;;;;;1.76;69.19;99684.41;4975853;28;20097;-81
2023/03/12 01:39:37;;;;;;;14.30;5.85;;;;;;;1.66;69.22;99691.91;4985026;28;20061;-81
2023/03/12 01:42:04;;;;;;;16.17;6.70;;;;;;;1.69;68.95;99692.56;4978873;28;20404;-81
2023/03/12 01:44:55;;;;;;;15.35;6.75;;;;;;;1.68;69.11;99695.25;4966276;28;20046;-82
2023/03/12 01:47:22;;;;;;;13.85;5.80;;;;;;;1.74;69.12;99693.16;4951518;28;20397;-81
2023/03/12 01:49:51;;;;;;;11.68;5.68;;;;;;;1.72;69.30;99689.78;4988707;28;20485;-81
2023/03/12 01:52:26;;;;;;;11.70;5.68;;;;;;;1.77;69.22;99683.44;4969082;28;20054;-81
2023/03/12 01:55:06;;;;;;;9.30;6.13;;;;;;;1.75;69.21;99686.13;4979639;28;20054;-81
2023/03/12 01:57:43;;;;;;;11.15;5.38;;;;;;;1.72;69.24;99679.31;4981137;28;20500;-82
2023/03/12 02:00:28;;;;;;;11.38;5.72;;;;;;;1.65;69.74;99685.78;4955698;28;20643;-81
2023/03/12 02:03:01;;;;;;;11.48;6.05;;;;;;;1.79;69.35;99682.44;4968456;28;20055;-81
2023/03/12 02:05:50;;;;;;;13.48;6.18;;;;;;;1.62;70.15;99678.09;4968792;28;20049;-81
2023/03/12 02:08:18;;;;;;;12.73;6.18;;;;;;;1.69;69.42;99682.09;4985730;28;20162;-82
2023/03/12 02:10:45;;;;;;;11.07;5.25;;;;;;;1.69;69.85;99678.63;4959093;28;20051;-81
2023/03/12 02:13:12;;;;;;;11.60;6.07;;;;;;;1.72;69.59;99681.06;4965886;28;20108;-81
2023/03/12 02:15:43;;;;;;;12.40;6.22;;;;;;;1.72;69.29;99675.84;4954956;28;20050;-81
2023/03/12 02:18:14;;;;;;;15.30;6.43;;;;;;;1.73;69.59;99672.28;4980251;28;20054;-81
2023/03/12 02:21:05;;;;;;;12.48;6.15;;;;;;;1.73;69.28;99677.53;4949827;28;20046;-81
2023/03/12 02:23:50;;;;;;;10.55;5.68;;;;;;;1.55;69.83;99671.50;4960925;28;20120;-82
2023/03/12 02:26:18;;;;;;;13.15;6.00;;;;;;;1.66;69.70;99668.34;4982999;28;20074;-81
2023/03/12 02:28:45;;;;;;;12.05;5.75;;;;;;;1.62;69.75;99669.41;4992193;28;20042;-81
2023/03/12 02:31:14;;;;;;;16.38;5.72;;;;;;;1.56;70.06;99664.53;4975949;28;20046;-81
2023/03/12 02:33:41;;;;;;;12.32;5.18;;;;;;;1.63;69.84;99669.34;4952725;28;20544;-81
2023/03/12 02:36:08;;;;;;;11.80;5.60;;;;;;;1.58;69.66;99668.75;4984088;28;20506;-81
2023/03/12 02:38:40;;;;;;;12.02;5.13;;;;;;;1.47;70.17;99671.09;4970088;28;20069;-81
2023/03/12 02:41:28;;;;;;;12.88;5.45;;;;;;;1.43;70.53;99674.81;4985658;28;20054;-82
2023/03/12 02:44:00;;;;;;;11.95;6.50;;;;;;;1.55;70.13;99675.91;4942430;28;20444;-81
2023/03/12 02:46:29;;;;;;;14.60;5.43;;;;;;;1.65;69.99;99666.63;4997836;28;20062;-82
2023/03/12 02:48:56;;;;;;;11.32;5.60;;;;;;;1.66;69.78;99674.41;4967155;28;20061;-82
2023/03/12 02:51:23;;;;;;;12.25;6.55;;;;;;;1.64;70.05;99672.81;4969793;28;20142;-82
2023/03/12 02:53:53;;;;;;;11.00;5.50;;;;;;;1.67;69.97;99676.09;4988547;28;20043;-81
2023/03/12 02:56:23;;;;;;;10.80;6.53;;;;;;;1.67;69.63;99670.84;4986349;28;20061;-82
2023/03/12 02:58:50;;;;;;;11.48;5.53;;;;;;;1.51;71.07;99668.22;4963430;28;20057;-82
2023/03/12 03:01:17;;;;;;;12.23;5.32;;;;;;;1.50;71.17;99656.09;4967930;28;20129;-83
2023/03/12 03:03:44;;;;;;;12.60;5.80;;;;;;;1.64;70.60;99655.31;4966470;28;20050;-83
2023/03/12 03:06:11;;;;;;;12.50;5.55;;;;;;;1.66;70.80;99658.72;4983906;28;20961;-82
2023/03/12 03:08:38;;;;;;;14.50;8.05;;;;;;;1.59;70.65;99652.13;4986463;28;20052;-83
2023/03/12 03:11:05;;;;;;;16.80;7.07;;;;;;;1.56;70.60;99656.69;4980395;28;20051;-83
2023/03/12 03:13:32;;;;;;;14.10;7.00;;;;;;;1.57;70.74;99664.44;4969325;28;20042;-83
2023/03/12 03:16:00;;;;;;;14.50;7.20;;;;;;;1.68;69.91;99656.84;4972611;28;20077;-83
2023/03/12 03:18:28;;;;;;;12.13;6.50;;;;;;;1.65;69.81;99653.53;4954437;28;20042;-83
2023/03/12 03:21:01;;;;;;;11.23;5.82;;;;;;;1.64;69.84;99654.47;4927676;28;20576;-82
2023/03/12 03:23:29;;;;;;;11.68;5.68;;;;;;;1.64;70.06;99652.69;4918176;28;20076;-82
2023/03/12 03:25:58;;;;;;;12.75;6.00;;;;;;;1.59;70.78;99646.03;4969594;28;20051;-82
2023/03/12 03:28:26;;;;;;;15.23;7.07;;;;;;;1.66;70.78;99655.25;4975298;28;20104;-83
2023/03/12 03:30:57;;;;;;;13.50;6.15;;;;;;;1.68;70.49;99656.00;4944373;28;20050;-83
2023/03/12 03:33:24;;;;;;;14.75;6.35;;;;;;;1.60;71.16;99660.81;4965841;28;20053;-83
2023/03/12 03:35:51;;;;;;;16.23;5.68;;;;;;;1.58;70.77;99662.66;4946419;28;20050;-83
2023/03/12 03:38:18;;;;;;;15.95;6.32;;;;;;;1.73;70.03;99659.19;4954200;28;20051;-83
2023/03/12 03:40:45;;;;;;;11.32;5.50;;;;;;;1.71;69.58;99661.06;4933386;28;20379;-83
2023/03/12 03:43:11;;;;;;;11.43;6.65;;;;;;;1.75;69.65;99665.19;4945720;28;20054;-83
2023/03/12 03:45:38;;;;;;;11.93;6.30;;;;;;;1.72;69.96;99652.28;4934199;28;20047;-82
2023/03/12 03:48:05;;;;;;;14.55;6.13;;;;;;;1.65;70.65;99656.16;4955442;28;20071;-83
2023/03/12 03:50:33;;;;;;;9.02;5.50;;;;;;;1.62;71.31;99651.09;4947546;28;20078;-83
2023/03/12 03:52:59;;;;;;;12.95;5.97;;;;;;;1.61;70.97;99655.50;4951190;28;20472;-82
2023/03/12 03:55:26;;;;;;;12.80;6.07;;;;;;;1.59;71.29;99653.88;4984254;28;20446;-83
2023/03/12 03:57:53;;;;;;;14.02;6.80;;;;;;;1.53;71.29;99649.84;4987748;28;20376;-83
2023/03/12 04:00:20;;;;;;;10.68;5.43;;;;;;;1.58;71.61;99647.81;4937168;28;20051;-82
2023/03/12 04:02:50;;;;;;;15.30;6.70;;;;;;;1.50;71.19;99650.84;4943143;28;20047;-83
2023/03/12 04:05:18;;;;;;;11.70;6.05;;;;;;;1.54;70.85;99643.66;4967504;28;20039;-82
2023/03/12 04:07:53;;;;;;;13.30;5.95;;;;;;;1.60;70.98;99647.72;4970327;28;20046;-83
2023/03/12 04:10:23;;;;;;;11.32;6.13;;;;;;;1.67;71.30;99641.22;4965184;28;20057;-83
2023/03/12 04:12:51;;;;;;;12.73;6.13;;;;;;;1.60;71.95;99640.69;4974281;28;20042;-83
2023/03/12 04:15:18;;;;;;;12.20;6.60;;;;;;;1.66;71.54;99644.78;4968835;28;20042;-83
2023/03/12 04:17:46;;;;;;;13.07;6.68;;;;;;;1.63;71.48;99644.94;4981077;28;20047;-83
2023/03/12 04:20:14;;;;;;;16.95;6.18;;;;;;;1.69;71.53;99642.81;4957296;28;20076;-83
2023/03/12 04:22:41;;;;;;;13.35;6.07;;;;;;;1.68;71.93;99643.78;4971639;28;20531;-82
2023/03/12 04:25:10;;;;;;;12.43;5.57;;;;;;;1.71;71.64;99651.44;4967423;28;20046;-83
2023/03/12 04:27:36;;;;;;;11.48;6.18;;;;;;;1.68;70.93;99645.50;4958608;28;20073;-83
2023/03/12 04:30:04;;;;;;;10.02;5.97;;;;;;;1.70;70.96;99651.53;4997184;28;20056;-83
2023/03/12 04:32:32;;;;;;;12.75;5.80;;;;;;;1.70;70.54;99651.53;4949805;28;20047;-83
2023/03/12 04:34:59;;;;;;;11.77;6.22;;;;;;;1.71;70.57;99654.06;4949127;28;20055;-83
2023/03/12 04:37:26;;;;;;;15.15;6.82;;;;;;;1.74;70.58;99651.28;4975235;28;20118;-83
2023/03/12 04:39:52;;;;;;;10.18;5.93;;;;;;;1.70;70.74;99651.53;4980310;28;20046;-83
2023/03/12 04:42:19;;;;;;;10.93;5.40;;;;;;;1.73;70.65;99653.97;4972880;28;20045;-83
2023/03/12 04:44:46;;;;;;;12.95;5.65;;;;;;;1.74;70.59;99648.66;4985805;28;20512;-83
2023/03/12 04:47:13;;;;;;;13.70;6.50;;;;;;;1.74;70.93;99643.41;4981563;28;20541;-83
2023/03/12 04:49:40;;;;;;;16.60;6.28;;;;;;;1.73;70.57;99628.66;4976720;28;20501;-83
2023/03/12 04:52:07;;;;;;;10.35;6.05;;;;;;;1.75;69.92;99639.03;4984417;28;20513;-82
2023/03/12 04:54:34;;;;;;;13.07;6.38;;;;;;;1.72;70.00;99632.19;4975626;28;20050;-83
2023/03/12 04:57:00;;;;;;;11.02;5.53;;;;;;;1.75;70.06;99639.03;4973198;28;20466;-83
2023/03/12 04:59:27;;;;;;;13.48;5.88;;;;;;;1.74;70.49;99637.34;4951063;28;20057;-83
2023/03/12 05:01:54;;;;;;;17.15;6.10;;;;;;;1.72;70.32;99639.19;4943188;28;20062;-83
2023/03/12 05:04:25;;;;;;;13.63;5.93;;;;;;;1.74;70.28;99643.41;4936720;28;20051;-83
2023/03/12 05:06:53;;;;;;;11.82;5.78;;;;;;;1.71;70.29;99642.75;4952537;28;20465;-83
2023/03/12 05:09:20;;;;;;;11.75;5.82;;;;;;;1.76;69.90;99645.97;4960701;28;20050;-83
2023/03/12 05:11:47;;;;;;;9.65;5.72;;;;;;;1.69;70.54;99639.38;4958822;28;20126;-83
2023/03/12 05:14:17;;;;;;;13.95;5.30;;;;;;;1.70;70.33;99643.66;4946316;28;20050;-83
2023/03/12 05:16:45;;;;;;;13.25;5.68;;;;;;;1.65;70.07;99633.44;4964732;28;20055;-83
2023/03/12 05:19:12;;;;;;;14.95;6.63;;;;;;;1.63;70.31;99632.72;4950181;28;20083;-83
2023/03/12 05:21:41;;;;;;;10.93;5.53;;;;;;;1.60;70.60;99637.25;4954019;28;20049;-83
2023/03/12 05:24:09;;;;;;;10.80;5.68;;;;;;;1.67;71.25;99631.59;4970756;28;20045;-83
2023/03/12 05:26:36;;;;;;;14.77;6.22;;;;;;;1.63;71.89;99635.31;4969114;28;20054;-83
2023/03/12 05:29:15;;;;;;;12.60;6.25;;;;;;;1.61;72.51;99646.81;4985424;28;20117;-83
2023/03/12 05:31:43;;;;;;;19.23;8.05;;;;;;;1.62;72.21;99645.88;4989640;28;20069;-83
2023/03/12 05:34:11;;;;;;;14.00;6.80;;;;;;;1.72;72.34;99644.44;4972624;28;20047;-82
2023/03/12 05:36:41;;;;;;;12.65;7.07;;;;;;;1.76;72.53;99655.59;4947065;28;20060;-83
2023/03/12 05:39:09;;;;;;;11.93;6.60;;;;;;;1.72;72.08;99655.75;4946150;28;20613;-83
2023/03/12 05:41:37;;;;;;;15.45;6.60;;;;;;;1.77;72.25;99650.25;4970795;28;20045;-84
2023/03/12 05:44:12;;;;;;;13.23;6.00;;;;;;;1.74;72.82;99643.41;4953526;28;20045;-83
2023/03/12 05:46:41;;;;;;;15.20;6.20;;;;;;;1.78;72.66;99643.25;4979847;28;21144;-83
2023/03/12 05:49:08;;;;;;;10.38;6.45;;;;;;;1.76;73.48;99648.59;4974796;28;20408;-82
2023/03/12 05:51:36;;;;;;;16.13;6.72;;;;;;;1.80;73.08;99642.22;4963284;28;20065;-83
2023/03/12 05:54:03;;;;;;;17.83;7.05;;;;;;;1.77;73.59;99645.03;4979938;28;20129;-83
2023/03/12 05:56:29;;;;;;;11.98;6.90;;;;;;;1.73;74.58;99644.34;4956676;28;20050;-83
2023/03/12 05:58:57;;;;;;;14.85;7.50;;;;;;;1.78;74.88;99632.78;4986063;28;20566;-83
2023/03/12 06:01:26;;;;;;;12.05;6.25;;;;;;;1.71;76.00;99634.91;4946728;28;20350;-83
2023/03/12 06:03:55;;;;;;;11.05;6.20;;;;;;;1.71;76.24;99638.34;4951507;28;20062;-83
2023/03/12 06:06:24;;;;;;;13.60;6.15;;;;;;;1.65;77.74;99643.91;5000913;28;20130;-83
2023/03/12 06:08:52;;;;;;;15.93;6.85;;;;;;;1.62;78.61;99638.00;4957010;28;20046;-83
2023/03/12 06:11:19;;;;;;;11.48;6.75;;;;;;;1.65;77.65;99633.44;4985484;28;20043;-83
2023/03/12 06:13:46;;;;;;;11.68;6.35;;;;;;;1.61;79.01;99641.56;4979010;28;20126;-83
2023/03/12 06:16:22;;;;;;;13.07;6.35;;;;;;;1.62;79.67;99635.41;4981022;28;20535;-83
2023/03/12 06:18:52;;;;;;;11.35;6.75;;;;;;;1.59;79.86;99631.19;4991277;28;20073;-83
2023/03/12 06:21:22;;;;;;;13.30;6.30;;;;;;;1.58;80.14;99634.72;4994724;28;20517;-83
2023/03/12 06:23:49;;;;;;;12.90;6.55;;;;;;;1.58;80.42;99644.34;4981391;28;20053;-83
2023/03/12 06:26:21;;;;;;;12.68;6.10;;;;;;;1.57;80.39;99637.41;4978381;28;20053;-83
2023/03/12 06:28:48;;;;;;;12.38;6.93;;;;;;;1.58;81.14;99633.88;4980601;28;20047;-83
2023/03/12 06:31:16;;;;;;;11.73;6.57;;;;;;;1.60;80.79;99640.69;4983110;28;20121;-83
2023/03/12 06:33:43;;;;;;;14.15;6.95;;;;;;;1.60;80.44;99634.63;4966166;28;20047;-83
2023/03/12 06:36:10;;;;;;;12.65;7.35;;;;;;;1.68;79.87;99638.53;4995162;28;20508;-83
2023/03/12 06:38:37;;;;;;;14.15;6.97;;;;;;;1.71;79.57;99642.75;4964276;28;20110;-82
2023/03/12 06:41:09;;;;;;;12.65;6.93;;;;;;;1.55;80.36;99634.88;4967982;28;20053;-83
2023/03/12 06:43:37;;;;;;;12.67;6.77;;;;;;;1.64;80.09;99644.00;4964042;28;20486;-83
2023/03/12 06:46:05;;;;;;;12.40;6.43;;;;;;;1.67;80.06;99643.84;4953323;28;20042;-83
2023/03/12 06:48:35;;;;;;;12.75;6.53;;;;;;;1.65;79.95;99638.69;4949920;28;20051;-83
2023/03/12 06:51:06;;;;;;;12.63;6.22;;;;;;;1.63;80.19;99637.94;4945940;28;20047;-83
2023/03/12 06:53:33;;;;;;;13.90;6.50;;;;;;;1.62;80.21;99641.47;4962269;28;20046;-83
2023/03/12 06:55:59;;;;;;;17.05;6.93;;;;;;;1.59;80.71;99649.50;4936896;28;20050;-83
2023/03/12 06:58:26;;;;;;;14.20;7.05;;;;;;;1.71;79.56;99637.53;4948044;28;20079;-83
2023/03/12 07:00:53;;;;;;;12.90;6.35;;;;;;;1.62;80.77;99640.63;4959778;28;20050;-83
2023/03/12 07:03:20;;;;;;;15.65;6.75;;;;;;;1.68;80.21;99645.50;4956100;28;20074;-83
2023/03/12 07:05:48;;;;;;;12.38;6.00;;;;;;;1.69;80.24;99647.22;4933083;28;20134;-83
2023/03/12 07:08:15;;;;;;;15.60;6.97;;;;;;;1.67;81.01;99641.22;4946298;28;20118;-83
2023/03/12 07:10:42;;;;;;;10.55;6.10;;;;;;;1.61;81.29;99631.94;4946587;28;20063;-83
2023/03/12 07:13:09;;;;;;;14.65;7.10;;;;;;;1.68;81.04;99633.31;4964451;28;23884;-83
2023/03/12 07:15:36;;;;;;;14.38;6.68;;;;;;;1.60;81.90;99632.84;4933077;28;20051;-83
2023/03/12 07:18:07;;;;;;;13.70;6.50;;;;;;;1.66;81.47;99640.38;4950985;28;20458;-83
2023/03/12 07:20:42;;;;;;;11.07;7.32;;;;;;;1.63;81.94;99637.94;4954952;28;20066;-83
2023/03/12 07:23:09;;;;;;;11.45;6.88;;;;;;;1.69;81.49;99642.00;4968464;28;20130;-83
2023/03/12 07:25:37;;;;;;;13.85;7.18;;;;;;;1.80;80.70;99642.22;4934225;28;20144;-83
2023/03/12 07:28:04;;;;;;;13.02;6.75;;;;;;;1.83;80.95;99631.63;4930016;28;20486;-83
2023/03/12 07:30:32;;;;;;;13.60;6.75;;;;;;;1.84;81.47;99637.69;4952373;28;20042;-83
2023/03/12 07:33:00;;;;;;;12.85;6.18;;;;;;;1.85;81.33;99634.97;4963342;28;20589;-83
2023/03/12 07:35:28;;;;;;;14.18;7.85;;;;;;;1.88;82.04;99639.19;4956557;28;20127;-83
2023/03/12 07:37:55;;;;;;;16.65;8.55;;;;;;;1.91;81.89;99632.03;4965214;28;20383;-83
2023/03/12 07:40:22;;;;;;;14.73;8.70;;;;;;;1.91;82.66;99632.03;4977828;28;20476;-83
2023/03/12 07:42:50;;;;;;;15.48;8.25;;;;;;;1.98;82.90;99635.13;4991618;28;20413;-83
2023/03/12 07:45:17;;;;;;;14.90;8.07;;;;;;;1.99;83.45;99636.00;4975068;28;20497;-83
2023/03/12 07:47:44;;;;;;;15.65;8.73;;;;;;;2.03;83.17;99643.56;4991205;28;20120;-83
2023/03/12 07:50:12;;;;;;;13.23;8.30;;;;;;;2.02;83.74;99641.88;4986542;28;20050;-83
2023/03/12 07:52:39;;;;;;;18.98;9.38;;;;;;;2.12;82.67;99642.22;4975850;28;20454;-83
2023/03/12 07:55:06;;;;;;;12.93;7.63;;;;;;;2.11;83.27;99640.50;4976550;28;20051;-83
2023/03/12 07:57:33;;;;;;;9.88;7.63;;;;;;;2.07;82.27;99642.47;4993132;28;20741;-83
2023/03/12 08:00:00;;;;;;;15.85;8.23;;;;;;;2.09;83.08;99639.78;4973533;28;20442;-83
2023/03/12 08:02:26;;;;;;;14.88;7.88;;;;;;;2.09;83.30;99626.69;4980349;28;20050;-83
2023/03/12 08:04:53;;;;;;;12.27;8.20;;;;;;;2.09;83.08;99638.00;4936048;28;20043;-84
2023/03/12 08:07:20;;;;;;;12.88;8.05;;;;;;;2.13;83.10;99633.41;4964216;28;20038;-83
2023/03/12 08:09:48;;;;;;;15.63;7.70;;;;;;;2.19;83.24;99633.09;4987683;28;20045;-83
2023/03/12 08:12:15;;;;;;;13.48;7.85;;;;;;;2.20;82.64;99639.16;4992674;28;20046;-83
2023/03/12 08:14:43;;;;;;;13.20;8.23;;;;;;;2.09;82.36;99631.91;4972781;28;20141;-83
2023/03/12 08:17:10;;;;;;;15.10;7.68;;;;;;;2.09;82.17;99629.31;4977988;28;20046;-83
2023/03/12 08:19:37;;;;;;;14.00;7.97;;;;;;;2.12;82.88;99627.34;4982968;28;20104;-83
2023/03/12 08:22:05;;;;;;;14.05;8.07;;;;;;;2.17;82.74;99629.69;4990606;28;20485;-83
2023/03/12 08:24:32;;;;;;;12.73;7.55;;;;;;;2.15;82.94;99626.31;4975752;28;20444;-83
2023/03/12 08:26:58;;;;;;;11.82;6.90;;;;;;;2.18;82.58;99632.22;4983001;28;21069;-83
2023/03/12 08:29:25;;;;;;;11.90;7.22;;;;;;;2.20;82.65;99636.53;4979288;28;20387;-83
2023/03/12 08:31:52;;;;;;;15.00;7.45;;;;;;;2.18;82.30;99634.00;4982668;28;20057;-84
2023/03/12 08:34:30;;;;;;;12.48;7.90;;;;;;;2.25;82.03;99631.88;4975169;28;20407;-84
2023/03/12 08:36:57;;;;;;;12.75;7.40;;;;;;;2.23;82.00;99628.50;4968211;28;20129;-84
2023/03/12 08:39:23;;;;;;;13.65;7.65;;;;;;;2.21;82.55;99643.47;4977157;28;20053;-83
2023/03/12 08:41:54;;;;;;;16.67;7.47;;;;;;;2.16;82.53;99634.09;4991695;28;20065;-84
2023/03/12 08:44:21;;;;;;;20.10;8.80;;;;;;;2.17;83.49;99645.41;4954890;28;20042;-84
2023/03/12 08:46:48;;;;;;;13.02;7.70;;;;;;;2.17;83.12;99642.81;4947815;28;20047;-84
2023/03/12 08:49:15;;;;;;;15.98;8.05;;;;;;;2.17;83.50;99632.31;4946571;28;20695;-83
2023/03/12 08:51:42;;;;;;;17.60;8.30;;;;;;;2.18;83.83;99639.22;4948310;28;20070;-83
2023/03/12 08:54:08;;;;;;;11.90;8.27;;;;;;;2.26;83.43;99634.41;4933986;28;20046;-83
2023/03/12 08:56:41;;;;;;;15.68;8.95;;;;;;;2.31;83.03;99642.84;4933142;28;20051;-83
2023/03/12 08:59:09;;;;;;;19.08;9.75;;;;;;;2.21;84.18;99636.44;4932118;28;20046;-83
2023/03/12 09:01:36;;;;;;;22.73;9.55;;;;;;;2.29;83.19;99642.09;4959432;28;20046;-83
2023/03/12 09:04:03;;;;;;;16.17;8.40;;;;;;;2.36;83.09;99634.72;4962729;28;20046;-83
2023/03/12 09:06:32;;;;;;;15.05;9.13;;;;;;;2.35;84.25;99633.03;4945848;28;20050;-83
2023/03/12 09:09:03;;;;;;;18.67;10.38;;;;;;;2.30;84.83;99621.97;4943903;28;20047;-83
2023/03/12 09:11:32;;;;;;;16.98;10.07;;;;;;;2.31;84.36;99634.13;4965542;28;20101;-83
2023/03/12 09:13:59;;;;;;;15.05;9.43;;;;;;;2.35;84.34;99628.63;4934134;28;20051;-83
2023/03/12 09:16:45;;;;;;;14.85;9.77;;;;;;;2.36;84.49;99627.69;4983031;28;20126;-83
2023/03/12 09:19:12;;;;;;;17.00;8.90;;;;;;;2.37;84.45;99624.16;4965145;28;20050;-82
2023/03/12 09:21:39;;;;;;;18.20;11.10;;;;;;;2.40;84.63;99625.75;4984141;28;20038;-82
2023/03/12 09:24:06;;;;;;;18.42;10.32;;;;;;;2.42;84.86;99621.28;4983508;28;20594;-82
2023/03/12 09:26:33;;;;;;;17.73;10.57;;;;;;;2.39;85.57;99629.28;4969705;28;20045;-82
2023/03/12 09:29:00;;;;;;;14.13;9.88;;;;;;;2.48;85.36;99627.94;4962578;28;20042;-82
2023/03/12 09:31:26;;;;;;;19.15;10.23;;;;;;;2.46;85.47;99624.53;4983476;28;20058;-83
2023/03/12 09:33:53;;;;;;;18.13;10.60;;;;;;;2.43;86.54;99629.97;4984401;28;20497;-83
2023/03/12 09:36:20;;;;;;;17.38;10.65;;;;;;;2.49;85.46;99619.13;4973798;28;20046;-82
2023/03/12 09:38:46;;;;;;;21.50;11.40;;;;;;;2.50;86.10;99628.69;4973485;28;20047;-82
2023/03/12 09:41:34;;;;;;;20.00;10.77;;;;;;;2.42;87.75;99623.91;4976926;28;20394;-83
2023/03/12 09:44:09;;;;;;;22.25;12.02;;;;;;;2.44;87.05;99629.88;4958185;28;20043;-82
2023/03/12 09:46:53;;;;;;;20.65;12.52;;;;;;;2.38;88.40;99627.63;4959237;28;21353;-84
2023/03/12 09:49:26;;;;;;;18.63;10.88;;;;;;;2.42;87.87;99616.03;4988803;28;20133;-83
2023/03/12 09:51:54;;;;;;;19.33;11.82;;;;;;;2.48;87.60;99625.31;4981431;28;20123;-82
2023/03/12 09:54:28;;;;;;;27.73;11.93;;;;;;;2.45;88.13;99633.34;4961374;28;20065;-83
2023/03/12 09:56:57;;;;;;;22.50;11.48;;;;;;;2.47;88.25;99629.72;4979024;28;20498;-83
2023/03/12 09:59:24;;;;;;;22.13;11.65;;;;;;;2.51;87.66;99630.38;4985666;28;20050;-83
2023/03/12 10:01:54;;;;;;;19.58;11.80;;;;;;;2.53;87.73;99634.59;4983151;28;20070;-82
2023/03/12 10:04:23;;;;;;;18.58;11.02;;;;;;;2.57;87.50;99638.72;4966024;28;20100;-82
2023/03/12 10:07:12;;;;;;;21.90;12.30;;;;;;;2.58;87.66;99642.19;4975048;28;20096;-82
2023/03/12 10:09:43;;;;;;;14.40;9.98;;;;;;;2.56;87.66;99639.63;4994467;28;20130;-82
2023/03/12 10:12:19;;;;;;;17.83;9.88;;;;;;;2.54;88.58;99643.28;4967149;28;20564;-82
2023/03/12 10:15:14;;;;;;;21.63;11.15;;;;;;;2.59;88.84;99652.56;4964212;28;20050;-82
2023/03/12 10:18:03;;;;;;;21.13;11.95;;;;;;;2.53;89.39;99647.69;4962859;28;20371;-82
2023/03/12 10:20:46;;;;;;;28.52;11.65;;;;;;;2.51;88.88;99648.72;4949455;28;20038;-82
2023/03/12 10:23:26;;;;;;;21.80;11.95;;;;;;;2.54;89.68;99659.00;4981055;28;20070;-82
2023/03/12 10:26:41;;;;;;;20.20;11.73;;;;;;;2.46;91.59;99661.25;4961067;28;20055;-82
2023/03/12 10:29:18;;;;;;;23.85;11.88;;;;;;;2.59;89.18;99657.81;4895142;28;20094;-82
2023/03/12 10:31:53;;;;;;;25.42;12.25;;;;;;;2.57;90.08;99659.69;4967663;28;20398;-82
2023/03/12 10:34:24;;;;;;;23.38;12.13;;;;;;;2.64;88.33;99654.06;4980075;28;20042;-82
2023/03/12 10:36:51;;;;;;;24.20;12.85;;;;;;;2.65;88.60;99661.88;4992765;28;20064;-82
2023/03/12 10:39:19;;;;;;;22.15;11.95;;;;;;;2.71;88.39;99671.16;4970194;28;20041;-82
2023/03/12 10:41:46;;;;;;;23.95;11.38;;;;;;;2.72;88.29;99672.81;4981221;28;20042;-82
2023/03/12 10:44:18;;;;;;;18.63;11.63;;;;;;;2.72;88.47;99675.44;4978428;28;20046;-82
2023/03/12 10:47:05;;;;;;;22.25;11.85;;;;;;;2.70;89.84;99669.47;4981040;28;20058;-82
2023/03/12 10:49:34;;;;;;;32.50;16.33;;;;;;;2.75;88.48;99680.53;4928674;28;20042;-82
2023/03/12 10:52:22;;;;;;;23.33;12.82;;;;;;;2.75;89.46;99676.13;4968905;28;20042;-81
2023/03/12 10:54:50;;;;;;;19.98;12.02;;;;;;;2.83;88.50;99678.28;4950309;28;20112;-81
2023/03/12 10:57:18;;;;;;;21.77;11.63;;;;;;;2.87;87.97;99669.28;4978368;28;20034;-82
2023/03/12 10:59:47;;;;;;;23.40;11.63;;;;;;;2.84;88.09;99669.47;4958998;28;20046;-83
2023/03/12 11:02:34;;;;;;;29.70;11.43;;;;;;;2.85;89.26;99671.19;4989153;28;20043;-82
2023/03/12 11:05:05;;;;;;;25.10;11.75;;;;;;;2.88;88.19;99662.28;4955062;28;20047;-82
2023/03/12 11:07:34;;;;;;;19.85;11.48;;;;;;;2.86;88.20;99659.75;4972688;28;20039;-83
2023/03/12 11:10:16;;;;;;;23.92;12.57;;;;;;;2.86;88.71;99661.53;4966581;28;20113;-82
2023/03/12 11:13:02;;;;;;;26.47;12.67;;;;;;;2.95;88.38;99658.34;4995139;28;20422;-83
2023/03/12 11:15:35;;;;;;;24.63;13.65;;;;;;;2.98;88.83;99661.66;4967469;28;20088;-83
2023/03/12 11:18:20;;;;;;;28.48;13.45;;;;;;;3.06;89.04;99655.94;4993327;28;20105;-83
2023/03/12 11:20:49;;;;;;;27.25;14.43;;;;;;;3.12;87.96;99662.59;4996524;28;20046;-83
2023/03/12 11:23:19;;;;;;;25.90;14.48;;;;;;;3.19;86.99;99666.53;4949637;28;20117;-84
2023/03/12 11:26:03;;;;;;;38.67;18.40;;;;;;;3.18;88.46;99651.72;4986702;28;20042;-83
2023/03/12 11:28:46;;;;;;;35.95;18.45;;;;;;;3.19;88.67;99650.78;4967976;28;20052;-83
2023/03/12 11:31:25;;;;;;;47.05;18.40;;;;;;;3.25;87.98;99655.66;4940515;28;20054;-82
2023/03/12 11:33:55;;;;;;;44.97;18.88;;;;;;;3.31;87.40;99657.06;4981018;28;20105;-82
2023/03/12 11:36:29;;;;;;;40.65;18.88;;;;;;;3.31;87.48;99655.28;4989665;28;20062;-82
2023/03/12 11:39:14;;;;;;;42.20;21.55;;;;;;;3.32;88.14;99653.50;4984099;28;21147;-82
2023/03/12 11:41:41;;;;;;;42.67;20.88;;;;;;;3.36;87.22;99662.84;4954540;28;20079;-81
2023/03/12 11:44:22;;;;;;;42.50;20.60;;;;;;;3.30;88.01;99663.25;4961371;28;20047;-82